GVAC/SID METAR and TAF weather

Enter ICAO airport designator
Station Type Date Time Source
GVAC METAR 2020/11/27 15:00 UTC NOAA

GVAC 271500Z 05018KT 9999 BKN015 SCT200 26/16 Q1015 NOSIG


Station Type Date Time Source
GVAC Decoded METAR 2020/11/27 15:00 UTC NOAA

Sal, Cape Verde (GVAC) 16-44N 022-57W 55M
Nov 27, 2020 - 10:00 AM EST / 2020.11.27 1500 UTC
Wind: from the NE (050 degrees) at 21 MPH (18 KT):0
Visibility: greater than 7 mile(s):0
Sky conditions: mostly cloudy
Temperature: 78 F (26 C)
Dew Point: 60 F (16 C)
Relative Humidity: 54%
Pressure (altimeter): 29.97 in. Hg (1015 hPa)
ob: GVAC 271500Z 05018KT 9999 BKN015 SCT200 26/16 Q1015 NOSIG
cycle: 15

Station Type Date Time Source
GVAC TAF 2020/11/27 12:55 UTC NOAA

TAF GVAC 271100Z 2712/2818 04016G28KT 9999 SCT015
BECMG 2719/2721 04015KT

Example: see airport list